Time;durP1;ratioP1;P1;durP2;ratioP2;P2;SDS_P1;SDS_P2;PMS_P1;PMS_P2;Temp;Humidity;BMP_temperature;BMP_pressure;BME280_temperature;BME280_humidity;BME280_pressure;Samples;Min_cycle;Max_cycle;Signal;HPM_P1;HPM_P2
2022/10/24 00:01:29;;;;;;;5.67;3.92;;;;;;;;;;1753439;80;21056;-63
2022/10/24 00:03:55;;;;;;;5.78;3.70;;;;;;;;;;1758018;80;21084;-63
2022/10/24 00:06:22;;;;;;;6.80;4.00;;;;;;;;;;1761328;81;21057;-63
2022/10/24 00:08:48;;;;;;;5.78;4.03;;;;;;;;;;1761386;81;21033;-63
2022/10/24 00:11:17;;;;;;;6.90;4.37;;;;;;;;;;1760310;80;21037;-63
2022/10/24 00:13:43;;;;;;;6.28;4.37;;;;;;;;;;1756304;80;21172;-63
2022/10/24 00:16:10;;;;;;;6.80;4.30;;;;;;;;;;1758976;81;21045;-63
2022/10/24 00:18:38;;;;;;;6.40;4.08;;;;;;;;;;1761325;81;21494;-63
2022/10/24 00:21:05;;;;;;;6.60;4.65;;;;;;;;;;1761704;81;21018;-63
2022/10/24 00:23:32;;;;;;;6.30;4.10;;;;;;;;;;1755882;80;21112;-63
2022/10/24 00:26:00;;;;;;;7.03;4.12;;;;;;;;;;1753605;81;21064;-62
2022/10/24 00:28:27;;;;;;;7.95;3.72;;;;;;;;;;1759650;81;21535;-64
2022/10/24 00:30:54;;;;;;;6.03;4.10;;;;;;;;;;1760760;81;21021;-63
2022/10/24 00:33:20;;;;;;;6.67;3.80;;;;;;;;;;1761233;80;21052;-64
2022/10/24 00:35:46;;;;;;;5.60;3.70;;;;;;;;;;1735689;81;21044;-65
2022/10/24 00:38:14;;;;;;;5.53;3.72;;;;;;;;;;1724066;83;21065;-64
2022/10/24 00:40:40;;;;;;;5.72;3.55;;;;;;;;;;1722367;83;22209;-62
2022/10/24 00:43:18;;;;;;;6.45;3.65;;;;;;;;;;1721810;82;21111;-63
2022/10/24 00:45:46;;;;;;;6.00;3.50;;;;;;;;;;1721284;83;21076;-62
2022/10/24 00:48:14;;;;;;;5.70;3.22;;;;;;;;;;1723456;82;21528;-64
2022/10/24 00:50:41;;;;;;;5.37;3.40;;;;;;;;;;1721884;83;21112;-63
2022/10/24 00:53:08;;;;;;;6.30;3.42;;;;;;;;;;1721888;82;21016;-63
2022/10/24 00:55:36;;;;;;;6.10;3.65;;;;;;;;;;1721658;83;21061;-63
2022/10/24 00:58:04;;;;;;;5.95;3.62;;;;;;;;;;1719646;83;21036;-64
2022/10/24 01:00:31;;;;;;;4.53;3.33;;;;;;;;;;1718605;83;21091;-63
2022/10/24 01:02:57;;;;;;;5.17;3.50;;;;;;;;;;1721830;83;20998;-64
2022/10/24 01:05:25;;;;;;;6.20;3.72;;;;;;;;;;1721904;83;21080;-63
2022/10/24 01:07:53;;;;;;;5.60;3.60;;;;;;;;;;1721950;83;21033;-63
2022/10/24 01:10:39;;;;;;;5.95;4.17;;;;;;;;;;1721843;82;21574;-63
2022/10/24 01:13:17;;;;;;;5.58;3.60;;;;;;;;;;1721029;83;21037;-64
2022/10/24 01:15:52;;;;;;;8.95;3.80;;;;;;;;;;1692533;83;21092;-63
2022/10/24 01:18:34;;;;;;;6.95;3.95;;;;;;;;;;1721627;83;21545;-63
2022/10/24 01:21:11;;;;;;;7.00;4.10;;;;;;;;;;1720304;82;21600;-63
2022/10/24 01:23:43;;;;;;;5.62;3.77;;;;;;;;;;1713467;84;21048;-63
2022/10/24 01:26:26;;;;;;;8.28;4.25;;;;;;;;;;1716576;83;21076;-63
2022/10/24 01:29:02;;;;;;;6.17;3.90;;;;;;;;;;1659847;86;21080;-63
2022/10/24 01:31:30;;;;;;;5.60;3.65;;;;;;;;;;1708680;82;21138;-63
2022/10/24 01:33:57;;;;;;;6.20;3.22;;;;;;;;;;1720623;83;21536;-63
2022/10/24 01:36:25;;;;;;;8.15;4.37;;;;;;;;;;1722042;83;21494;-63
2022/10/24 01:38:53;;;;;;;5.30;3.62;;;;;;;;;;1716016;82;21048;-63
2022/10/24 01:41:21;;;;;;;8.20;4.00;;;;;;;;;;1719954;82;21116;-63
2022/10/24 01:43:50;;;;;;;6.45;3.92;;;;;;;;;;1718132;83;21028;-63
2022/10/24 01:46:36;;;;;;;7.05;4.60;;;;;;;;;;1723622;82;21037;-63
2022/10/24 01:49:04;;;;;;;6.50;3.98;;;;;;;;;;1742218;82;21066;-63
2022/10/24 01:51:30;;;;;;;7.75;4.03;;;;;;;;;;1721418;82;21038;-63
2022/10/24 01:53:57;;;;;;;7.60;4.15;;;;;;;;;;1681554;84;21128;-62
2022/10/24 01:56:24;;;;;;;6.72;4.00;;;;;;;;;;1700015;84;21119;-62
2022/10/24 01:58:50;;;;;;;5.95;3.50;;;;;;;;;;1695531;84;21538;-62
2022/10/24 02:04:05;;;;;;;8.23;4.20;;;;;;;;;;1715373;79;74859;-65
2022/10/24 02:06:34;;;;;;;8.15;4.37;;;;;;;;;;1696533;84;21077;-65
2022/10/24 02:09:04;;;;;;;8.10;4.30;;;;;;;;;;1690116;84;21099;-65
2022/10/24 02:11:33;;;;;;;7.40;4.12;;;;;;;;;;1722609;82;21017;-66
2022/10/24 02:14:07;;;;;;;9.53;4.78;;;;;;;;;;1702326;82;21049;-66
2022/10/24 02:16:34;;;;;;;7.20;3.90;;;;;;;;;;1735533;82;21042;-66
2022/10/24 02:19:01;;;;;;;6.05;4.10;;;;;;;;;;1732312;82;21095;-65
2022/10/24 02:21:32;;;;;;;8.85;3.90;;;;;;;;;;1729976;82;21508;-65
2022/10/24 02:24:04;;;;;;;5.65;4.20;;;;;;;;;;1725906;82;21084;-65
2022/10/24 02:26:35;;;;;;;9.28;5.45;;;;;;;;;;1713415;82;21099;-65
2022/10/24 02:29:03;;;;;;;7.92;4.67;;;;;;;;;;1706065;84;21054;-65
2022/10/24 02:31:31;;;;;;;6.97;4.53;;;;;;;;;;1736325;82;21070;-65
2022/10/24 02:33:57;;;;;;;8.10;4.42;;;;;;;;;;1729688;82;21076;-65
2022/10/24 02:36:24;;;;;;;7.60;5.15;;;;;;;;;;1726192;82;21025;-65
2022/10/24 02:38:50;;;;;;;7.50;4.60;;;;;;;;;;1696975;82;21555;-65
2022/10/24 02:41:18;;;;;;;6.87;4.33;;;;;;;;;;1711770;82;21627;-64
2022/10/24 02:43:45;;;;;;;10.00;4.67;;;;;;;;;;1745704;82;21564;-66
2022/10/24 02:46:11;;;;;;;9.90;4.85;;;;;;;;;;1736539;82;21100;-66
2022/10/24 02:50:43;;;;;;;7.08;4.15;;;;;;;;;;1790474;78;23529;-63
2022/10/24 02:53:11;;;;;;;8.30;4.67;;;;;;;;;;1747628;81;21028;-63
2022/10/24 02:55:37;;;;;;;7.92;4.58;;;;;;;;;;1758558;81;21027;-64
2022/10/24 02:58:03;;;;;;;7.72;4.28;;;;;;;;;;1738729;81;21038;-63
2022/10/24 03:00:30;;;;;;;5.72;4.00;;;;;;;;;;1738539;81;21516;-63
2022/10/24 03:02:56;;;;;;;8.28;4.72;;;;;;;;;;1754766;80;21056;-63
2022/10/24 03:05:22;;;;;;;8.38;4.90;;;;;;;;;;1732637;81;21053;-63
2022/10/24 03:07:49;;;;;;;6.12;4.45;;;;;;;;;;1731269;81;21584;-63
2022/10/24 03:10:16;;;;;;;10.15;5.20;;;;;;;;;;1749139;81;21069;-63
2022/10/24 03:12:43;;;;;;;7.50;4.60;;;;;;;;;;1756427;80;21556;-63
2022/10/24 03:15:09;;;;;;;7.90;4.40;;;;;;;;;;1755681;81;21048;-63
2022/10/24 03:17:35;;;;;;;11.18;5.53;;;;;;;;;;1761387;81;21064;-62
2022/10/24 03:20:02;;;;;;;10.78;5.45;;;;;;;;;;1761355;81;21037;-63
2022/10/24 03:22:28;;;;;;;9.35;5.17;;;;;;;;;;1765474;80;21477;-62
2022/10/24 03:24:54;;;;;;;11.50;5.65;;;;;;;;;;1758515;81;20976;-62
2022/10/24 03:27:21;;;;;;;9.38;5.10;;;;;;;;;;1757325;81;21243;-62
2022/10/24 03:29:48;;;;;;;9.08;5.78;;;;;;;;;;1737838;81;21060;-62
2022/10/24 03:32:13;;;;;;;8.85;5.10;;;;;;;;;;1737855;80;21559;-62
2022/10/24 03:34:41;;;;;;;9.08;5.35;;;;;;;;;;1755312;82;21107;-63
2022/10/24 03:37:07;;;;;;;9.30;5.78;;;;;;;;;;1755241;82;21526;-63
2022/10/24 03:39:33;;;;;;;9.20;5.10;;;;;;;;;;1756581;81;21064;-62
2022/10/24 03:41:59;;;;;;;9.18;5.10;;;;;;;;;;1761322;80;21017;-63
2022/10/24 03:44:26;;;;;;;10.28;5.50;;;;;;;;;;1760949;81;21053;-62
2022/10/24 03:46:53;;;;;;;9.28;5.42;;;;;;;;;;1761189;81;21572;-63
2022/10/24 03:49:20;;;;;;;10.48;5.40;;;;;;;;;;1750120;81;21077;-64
2022/10/24 03:51:46;;;;;;;8.28;5.05;;;;;;;;;;1727588;82;21022;-63
2022/10/24 03:54:14;;;;;;;8.20;5.10;;;;;;;;;;1739748;82;21105;-63
2022/10/24 03:56:41;;;;;;;11.08;5.60;;;;;;;;;;1739829;82;21104;-63
2022/10/24 03:59:08;;;;;;;9.05;5.12;;;;;;;;;;1739362;82;21100;-63
2022/10/24 04:01:34;;;;;;;9.60;5.37;;;;;;;;;;1736414;82;21017;-62
2022/10/24 04:04:01;;;;;;;11.33;5.65;;;;;;;;;;1738750;82;21018;-63
2022/10/24 04:06:26;;;;;;;9.15;5.30;;;;;;;;;;1739094;82;21014;-63
2022/10/24 04:08:52;;;;;;;9.30;5.40;;;;;;;;;;1739122;82;21560;-63
2022/10/24 04:11:19;;;;;;;8.05;5.35;;;;;;;;;;1739063;82;21053;-63
2022/10/24 04:13:45;;;;;;;8.68;5.42;;;;;;;;;;1732477;82;21042;-63
2022/10/24 04:16:11;;;;;;;9.85;5.40;;;;;;;;;;1713921;82;21576;-63
2022/10/24 04:18:37;;;;;;;12.20;6.03;;;;;;;;;;1708648;84;21148;-62
2022/10/24 04:21:05;;;;;;;8.60;6.28;;;;;;;;;;1721809;82;21344;-63
2022/10/24 04:23:34;;;;;;;11.95;5.90;;;;;;;;;;1738380;82;21025;-64
2022/10/24 04:26:00;;;;;;;9.68;6.50;;;;;;;;;;1738011;82;22248;-64
2022/10/24 04:28:28;;;;;;;8.73;5.87;;;;;;;;;;1713802;82;21057;-64
2022/10/24 04:30:55;;;;;;;9.70;5.42;;;;;;;;;;1720285;82;21065;-63
2022/10/24 04:33:22;;;;;;;9.93;6.12;;;;;;;;;;1724610;82;21045;-63
2022/10/24 04:35:49;;;;;;;10.75;7.05;;;;;;;;;;1739063;82;21065;-63
2022/10/24 04:38:15;;;;;;;7.40;5.12;;;;;;;;;;1739206;82;21372;-64
2022/10/24 04:40:43;;;;;;;9.03;5.70;;;;;;;;;;1738629;82;21173;-64
2022/10/24 04:43:10;;;;;;;7.92;5.30;;;;;;;;;;1737937;82;21588;-64
2022/10/24 04:45:35;;;;;;;8.38;4.60;;;;;;;;;;1738894;82;20986;-64
2022/10/24 04:48:01;;;;;;;13.13;4.95;;;;;;;;;;1739342;82;21072;-64
2022/10/24 04:50:28;;;;;;;7.75;5.12;;;;;;;;;;1737275;81;21156;-65
2022/10/24 04:52:54;;;;;;;7.62;4.55;;;;;;;;;;1730463;82;21547;-64
2022/10/24 04:55:20;;;;;;;7.87;5.22;;;;;;;;;;1753085;82;21064;-64
2022/10/24 04:57:47;;;;;;;8.60;5.17;;;;;;;;;;1753127;82;21036;-64
2022/10/24 05:00:14;;;;;;;9.28;5.95;;;;;;;;;;1752972;81;21049;-63
2022/10/24 05:02:40;;;;;;;6.85;4.60;;;;;;;;;;1722326;81;21108;-64
2022/10/24 05:05:07;;;;;;;8.93;5.30;;;;;;;;;;1742684;82;21099;-64
2022/10/24 05:07:33;;;;;;;7.60;4.62;;;;;;;;;;1753166;81;21037;-64
2022/10/24 05:10:00;;;;;;;9.20;4.87;;;;;;;;;;1753260;82;21096;-65
2022/10/24 05:12:26;;;;;;;10.48;5.17;;;;;;;;;;1752625;82;21512;-64
2022/10/24 05:14:53;;;;;;;7.33;4.65;;;;;;;;;;1752699;81;21076;-65
2022/10/24 05:17:20;;;;;;;9.55;5.40;;;;;;;;;;1753565;82;21067;-62
2022/10/24 05:19:48;;;;;;;10.55;5.20;;;;;;;;;;1714641;84;21044;-64
2022/10/24 05:22:14;;;;;;;10.10;4.95;;;;;;;;;;1714823;84;21036;-64
2022/10/24 05:24:40;;;;;;;6.65;4.75;;;;;;;;;;1714633;82;21024;-64
2022/10/24 05:27:07;;;;;;;8.85;5.45;;;;;;;;;;1704052;82;21104;-64
2022/10/24 05:29:34;;;;;;;8.75;4.97;;;;;;;;;;1713789;84;21121;-64
2022/10/24 05:32:00;;;;;;;9.73;5.72;;;;;;;;;;1714980;84;21091;-63
2022/10/24 05:34:26;;;;;;;8.15;5.55;;;;;;;;;;1714834;82;21025;-64
2022/10/24 05:36:53;;;;;;;19.85;13.03;;;;;;;;;;1714688;84;21072;-64
2022/10/24 05:39:20;;;;;;;11.45;6.80;;;;;;;;;;1712256;84;21516;-63
2022/10/24 05:41:46;;;;;;;9.80;6.62;;;;;;;;;;1711354;82;21040;-64
2022/10/24 05:44:13;;;;;;;8.43;5.35;;;;;;;;;;1748215;82;21032;-64
2022/10/24 05:46:39;;;;;;;11.25;6.22;;;;;;;;;;1748166;80;21044;-63
2022/10/24 05:49:05;;;;;;;9.98;6.05;;;;;;;;;;1746862;82;21641;-63
2022/10/24 05:51:31;;;;;;;9.48;5.60;;;;;;;;;;1729144;82;21100;-64
2022/10/24 05:53:57;;;;;;;8.43;5.75;;;;;;;;;;1733387;82;21040;-64
2022/10/24 05:56:24;;;;;;;6.83;5.30;;;;;;;;;;1734444;82;21469;-64
2022/10/24 05:58:50;;;;;;;11.12;6.42;;;;;;;;;;1730184;82;21021;-62
2022/10/24 06:01:16;;;;;;;10.18;5.97;;;;;;;;;;1729512;81;21065;-63
2022/10/24 06:03:43;;;;;;;9.78;6.50;;;;;;;;;;1739107;81;21553;-63
2022/10/24 06:06:10;;;;;;;9.40;5.90;;;;;;;;;;1736370;81;21063;-63
2022/10/24 06:08:36;;;;;;;11.33;6.87;;;;;;;;;;1737557;81;21060;-63
2022/10/24 06:11:02;;;;;;;13.45;6.90;;;;;;;;;;1739711;81;21132;-63
2022/10/24 06:13:29;;;;;;;10.13;5.83;;;;;;;;;;1737410;81;21057;-63
2022/10/24 06:15:55;;;;;;;11.03;6.92;;;;;;;;;;1732836;81;21000;-64
2022/10/24 06:18:22;;;;;;;11.12;6.90;;;;;;;;;;1733394;81;21010;-63
2022/10/24 06:20:50;;;;;;;11.48;7.25;;;;;;;;;;1737528;81;22508;-64
2022/10/24 06:23:16;;;;;;;11.70;7.20;;;;;;;;;;1735417;81;22110;-62
2022/10/24 06:25:43;;;;;;;11.25;7.00;;;;;;;;;;1737504;81;21067;-64
2022/10/24 06:28:10;;;;;;;12.03;7.35;;;;;;;;;;1734767;81;21556;-63
2022/10/24 06:30:38;;;;;;;13.00;7.08;;;;;;;;;;1735889;81;21523;-62
2022/10/24 06:33:04;;;;;;;12.75;8.03;;;;;;;;;;1736607;81;21016;-62
2022/10/24 06:35:30;;;;;;;10.63;7.30;;;;;;;;;;1738796;81;21196;-63
2022/10/24 06:37:57;;;;;;;13.53;7.97;;;;;;;;;;1738499;81;21008;-62
2022/10/24 06:40:23;;;;;;;14.07;7.83;;;;;;;;;;1716210;81;21033;-65
2022/10/24 06:42:49;;;;;;;13.10;7.87;;;;;;;;;;1737474;81;21062;-63
2022/10/24 06:45:18;;;;;;;15.93;8.38;;;;;;;;;;1734435;81;21087;-64
2022/10/24 06:47:44;;;;;;;14.30;9.38;;;;;;;;;;1737692;81;21091;-65
2022/10/24 06:50:11;;;;;;;14.93;9.40;;;;;;;;;;1736005;81;21068;-62
2022/10/24 06:52:37;;;;;;;14.60;9.15;;;;;;;;;;1745884;81;21719;-62
2022/10/24 06:55:04;;;;;;;14.03;8.65;;;;;;;;;;1737259;81;21071;-63
2022/10/24 06:57:30;;;;;;;16.55;9.25;;;;;;;;;;1743611;81;21049;-63
2022/10/24 06:59:56;;;;;;;12.43;8.43;;;;;;;;;;1734839;81;21021;-62
2022/10/24 07:02:22;;;;;;;14.85;8.80;;;;;;;;;;1737281;81;21013;-63
2022/10/24 07:04:50;;;;;;;13.62;8.23;;;;;;;;;;1734647;82;21564;-63
2022/10/24 07:07:18;;;;;;;14.43;8.68;;;;;;;;;;1733838;82;21076;-63
2022/10/24 07:09:44;;;;;;;14.60;8.83;;;;;;;;;;1737107;82;21543;-63
2022/10/24 07:12:10;;;;;;;15.88;9.18;;;;;;;;;;1721576;82;21807;-62
2022/10/24 07:14:37;;;;;;;12.80;8.38;;;;;;;;;;1721614;81;21010;-63
2022/10/24 07:17:04;;;;;;;12.55;8.10;;;;;;;;;;1725250;82;21006;-62
2022/10/24 07:19:30;;;;;;;16.20;9.43;;;;;;;;;;1738079;82;21095;-62
2022/10/24 07:21:57;;;;;;;16.75;9.93;;;;;;;;;;1738363;82;21025;-63
2022/10/24 07:24:23;;;;;;;15.93;9.40;;;;;;;;;;1738534;82;21022;-63
2022/10/24 07:26:49;;;;;;;17.50;10.23;;;;;;;;;;1731439;82;21049;-63
2022/10/24 07:29:17;;;;;;;17.80;9.58;;;;;;;;;;1735225;82;21021;-63
2022/10/24 07:31:43;;;;;;;17.87;10.53;;;;;;;;;;1772648;81;21061;-63
2022/10/24 07:34:09;;;;;;;16.90;9.95;;;;;;;;;;1707061;82;21041;-63
2022/10/24 07:36:35;;;;;;;15.50;8.98;;;;;;;;;;1732758;82;21492;-64
2022/10/24 07:39:01;;;;;;;15.88;8.50;;;;;;;;;;1737069;82;21049;-64
2022/10/24 07:41:28;;;;;;;14.87;8.40;;;;;;;;;;1726445;82;21056;-64
2022/10/24 07:43:55;;;;;;;13.72;9.05;;;;;;;;;;1736633;82;21018;-64
2022/10/24 07:46:22;;;;;;;13.98;8.70;;;;;;;;;;1735436;82;21580;-63
2022/10/24 07:48:49;;;;;;;17.77;9.25;;;;;;;;;;1737504;81;21065;-63
2022/10/24 07:51:15;;;;;;;14.18;8.45;;;;;;;;;;1745706;82;21048;-63
2022/10/24 07:53:41;;;;;;;12.95;8.33;;;;;;;;;;1746851;82;21024;-64
2022/10/24 07:56:10;;;;;;;13.65;8.30;;;;;;;;;;1747929;82;21033;-63
2022/10/24 07:58:37;;;;;;;11.88;7.00;;;;;;;;;;1745127;82;20997;-63
2022/10/24 08:01:05;;;;;;;16.73;8.25;;;;;;;;;;1752865;82;21060;-64
2022/10/24 08:03:33;;;;;;;15.80;8.20;;;;;;;;;;1752202;82;20996;-64
2022/10/24 08:05:59;;;;;;;13.30;8.43;;;;;;;;;;1752701;82;21044;-62
2022/10/24 08:08:26;;;;;;;11.57;7.00;;;;;;;;;;1752890;81;21075;-63
2022/10/24 08:10:52;;;;;;;14.05;8.00;;;;;;;;;;1752464;82;21001;-63
2022/10/24 08:13:18;;;;;;;11.95;8.08;;;;;;;;;;1753247;82;21068;-63
2022/10/24 08:15:44;;;;;;;13.93;8.48;;;;;;;;;;1714685;84;21042;-62
2022/10/24 08:18:12;;;;;;;13.40;8.18;;;;;;;;;;1714620;84;21043;-62
2022/10/24 08:20:40;;;;;;;12.60;7.75;;;;;;;;;;1695008;84;21048;-64
2022/10/24 08:23:06;;;;;;;11.80;7.67;;;;;;;;;;1710088;84;21091;-64
2022/10/24 08:25:33;;;;;;;10.53;6.40;;;;;;;;;;1714335;84;21055;-62
2022/10/24 08:27:59;;;;;;;10.98;7.78;;;;;;;;;;1713747;84;21064;-62
2022/10/24 08:30:25;;;;;;;15.43;9.23;;;;;;;;;;1713333;82;21063;-63
2022/10/24 08:32:53;;;;;;;14.80;8.13;;;;;;;;;;1745251;82;21014;-62
2022/10/24 08:35:20;;;;;;;13.72;7.95;;;;;;;;;;1752377;82;21084;-64
2022/10/24 08:37:47;;;;;;;14.23;8.38;;;;;;;;;;1747670;82;21535;-64
2022/10/24 08:40:15;;;;;;;16.75;7.78;;;;;;;;;;1753115;82;21052;-63
2022/10/24 08:42:42;;;;;;;12.00;6.60;;;;;;;;;;1748531;82;21080;-63
2022/10/24 08:45:10;;;;;;;13.83;7.78;;;;;;;;;;1748567;82;22435;-63
2022/10/24 08:47:38;;;;;;;12.45;7.45;;;;;;;;;;1736985;82;21079;-63
2022/10/24 08:50:10;;;;;;;13.90;7.40;;;;;;;;;;1733718;82;21087;-62
2022/10/24 08:52:37;;;;;;;10.43;7.40;;;;;;;;;;1715747;82;21049;-63
2022/10/24 08:55:08;;;;;;;13.15;6.40;;;;;;;;;;1715981;82;21037;-61
2022/10/24 08:57:33;;;;;;;13.18;7.17;;;;;;;;;;1737274;82;21022;-63
2022/10/24 09:00:00;;;;;;;12.10;7.37;;;;;;;;;;1721150;82;21513;-62
2022/10/24 09:02:28;;;;;;;12.43;6.92;;;;;;;;;;1738927;82;21109;-62
2022/10/24 09:04:55;;;;;;;12.00;7.17;;;;;;;;;;1731989;81;21002;-65
2022/10/24 09:07:22;;;;;;;10.10;6.35;;;;;;;;;;1737462;82;21518;-65
2022/10/24 09:09:50;;;;;;;10.38;6.22;;;;;;;;;;1737020;82;21108;-62
2022/10/24 09:12:16;;;;;;;8.15;5.28;;;;;;;;;;1736262;82;21093;-62
2022/10/24 09:14:43;;;;;;;8.18;5.12;;;;;;;;;;1736759;81;21006;-62
2022/10/24 09:17:22;;;;;;;7.58;5.28;;;;;;;;;;1731632;82;21136;-62
2022/10/24 09:19:53;;;;;;;9.65;5.78;;;;;;;;;;1739302;82;21029;-62
2022/10/24 09:22:20;;;;;;;8.65;5.60;;;;;;;;;;1732858;82;21370;-65
2022/10/24 09:24:54;;;;;;;9.38;5.42;;;;;;;;;;1737930;82;21057;-63
2022/10/24 09:27:22;;;;;;;11.45;5.58;;;;;;;;;;1700863;83;21048;-64
2022/10/24 09:29:50;;;;;;;9.18;5.65;;;;;;;;;;1737948;82;21037;-65
2022/10/24 09:32:21;;;;;;;9.13;6.05;;;;;;;;;;1738090;82;20985;-65
2022/10/24 09:34:50;;;;;;;11.90;8.03;;;;;;;;;;1729935;82;21068;-65
2022/10/24 09:37:31;;;;;;;11.33;6.83;;;;;;;;;;1732048;82;21037;-65
2022/10/24 09:40:05;;;;;;;12.73;7.80;;;;;;;;;;1730191;82;21052;-64
2022/10/24 09:42:31;;;;;;;11.95;6.50;;;;;;;;;;1732493;82;21002;-66
2022/10/24 09:44:58;;;;;;;13.85;8.35;;;;;;;;;;1749826;81;20990;-64
2022/10/24 09:47:26;;;;;;;13.72;7.83;;;;;;;;;;1731117;82;21655;-64
2022/10/24 09:49:53;;;;;;;13.08;8.25;;;;;;;;;;1739148;82;21057;-65
2022/10/24 09:52:26;;;;;;;10.63;6.72;;;;;;;;;;1747938;81;21507;-65
2022/10/24 09:55:10;;;;;;;11.40;7.37;;;;;;;;;;1749293;82;21059;-65
2022/10/24 09:57:38;;;;;;;11.12;6.78;;;;;;;;;;1744222;82;21093;-66
2022/10/24 10:00:05;;;;;;;11.20;8.68;;;;;;;;;;1753210;82;20993;-66
2022/10/24 10:02:36;;;;;;;9.33;5.90;;;;;;;;;;1753333;82;20993;-66
2022/10/24 10:05:04;;;;;;;9.70;5.55;;;;;;;;;;1753206;80;21080;-66
2022/10/24 10:07:37;;;;;;;8.98;5.67;;;;;;;;;;1753351;81;21022;-66
2022/10/24 10:10:06;;;;;;;8.18;5.30;;;;;;;;;;1747468;80;21116;-67
2022/10/24 10:12:34;;;;;;;8.58;5.15;;;;;;;;;;1749484;80;21026;-68
2022/10/24 10:15:02;;;;;;;10.10;6.17;;;;;;;;;;1747810;80;21444;-65
2022/10/24 10:17:31;;;;;;;10.43;6.45;;;;;;;;;;1749168;80;21584;-65
2022/10/24 10:19:57;;;;;;;10.23;6.17;;;;;;;;;;1747207;80;21032;-67
2022/10/24 10:22:25;;;;;;;9.78;6.22;;;;;;;;;;1746695;80;21948;-67
2022/10/24 10:24:52;;;;;;;10.93;6.95;;;;;;;;;;1746359;80;21039;-68
2022/10/24 10:27:29;;;;;;;13.10;6.97;;;;;;;;;;1746202;80;21032;-66
2022/10/24 10:30:10;;;;;;;12.47;6.62;;;;;;;;;;1752933;80;21314;-66
2022/10/24 10:32:38;;;;;;;10.95;6.53;;;;;;;;;;1745812;80;21078;-66
2022/10/24 10:35:06;;;;;;;10.40;6.50;;;;;;;;;;1746598;80;21286;-66
2022/10/24 10:37:34;;;;;;;10.38;6.70;;;;;;;;;;1741138;80;21077;-63
2022/10/24 10:40:18;;;;;;;11.73;6.87;;;;;;;;;;1744957;80;21604;-63
2022/10/24 10:42:54;;;;;;;12.50;6.37;;;;;;;;;;1735525;80;21544;-64
2022/10/24 10:45:31;;;;;;;11.05;6.30;;;;;;;;;;1751554;82;21033;-64
2022/10/24 10:47:59;;;;;;;10.03;6.30;;;;;;;;;;1760594;80;21084;-64
2022/10/24 10:50:27;;;;;;;9.08;6.25;;;;;;;;;;1749015;80;21612;-64
2022/10/24 10:52:57;;;;;;;9.93;6.78;;;;;;;;;;1740264;81;21583;-65
2022/10/24 10:55:26;;;;;;;8.18;5.87;;;;;;;;;;1737895;82;21128;-64
2022/10/24 10:57:54;;;;;;;14.53;6.62;;;;;;;;;;1728824;81;21029;-64
2022/10/24 11:00:22;;;;;;;12.25;7.12;;;;;;;;;;1743875;81;21041;-64
2022/10/24 11:02:56;;;;;;;8.78;5.97;;;;;;;;;;1728833;82;21036;-65
2022/10/24 11:05:24;;;;;;;10.72;6.80;;;;;;;;;;1734604;81;21002;-64
2022/10/24 11:08:09;;;;;;;9.63;6.08;;;;;;;;;;1738356;81;21041;-65
2022/10/24 11:10:38;;;;;;;11.10;6.67;;;;;;;;;;1717275;82;21017;-64
2022/10/24 11:13:06;;;;;;;11.03;6.58;;;;;;;;;;1729372;82;21076;-64
2022/10/24 11:15:34;;;;;;;8.20;5.22;;;;;;;;;;1721539;82;20965;-65
2022/10/24 11:18:02;;;;;;;7.80;5.75;;;;;;;;;;1745559;81;20986;-65
2022/10/24 11:20:33;;;;;;;11.28;6.22;;;;;;;;;;1728044;81;21532;-66
2022/10/24 11:23:10;;;;;;;10.45;5.70;;;;;;;;;;1731599;82;21085;-64
2022/10/24 11:25:44;;;;;;;9.85;5.97;;;;;;;;;;1734124;81;21611;-65
2022/10/24 11:28:12;;;;;;;7.25;5.33;;;;;;;;;;1745716;81;21043;-65
2022/10/24 11:46:24;;;;;;;8.08;6.00;;;;;;;;;;1739138;80;23103;-62
2022/10/24 11:48:55;;;;;;;9.38;5.95;;;;;;;;;;1714133;83;21012;-62
2022/10/24 12:18:58;;;;;;;11.53;7.05;;;;;;;;;;1807079;78;22948;-61
2022/10/24 12:21:25;;;;;;;9.18;6.45;;;;;;;;;;1762676;79;21027;-62
2022/10/24 12:23:52;;;;;;;7.78;5.90;;;;;;;;;;1788420;79;21056;-62
2022/10/24 12:26:20;;;;;;;10.82;5.95;;;;;;;;;;1792226;80;21571;-62
2022/10/24 12:28:54;;;;;;;9.70;6.53;;;;;;;;;;1792335;80;21065;-62
2022/10/24 12:31:21;;;;;;;8.15;6.28;;;;;;;;;;1789446;80;21032;-62
2022/10/24 12:33:49;;;;;;;9.13;6.15;;;;;;;;;;1771422;80;20981;-62
2022/10/24 12:36:17;;;;;;;9.13;6.55;;;;;;;;;;1779220;80;21100;-62
2022/10/24 12:38:58;;;;;;;9.88;6.50;;;;;;;;;;1756422;80;21542;-61
2022/10/24 12:41:35;;;;;;;9.70;6.60;;;;;;;;;;1777575;79;21064;-62
2022/10/24 12:44:19;;;;;;;9.65;6.28;;;;;;;;;;1770941;79;20948;-61
2022/10/24 12:46:47;;;;;;;9.88;6.83;;;;;;;;;;1785264;79;21066;-61
2022/10/24 12:49:15;;;;;;;9.30;6.45;;;;;;;;;;1784712;80;21072;-61
2022/10/24 12:51:41;;;;;;;10.45;6.22;;;;;;;;;;1786136;80;21023;-61
2022/10/24 12:54:12;;;;;;;8.83;6.12;;;;;;;;;;1763634;80;21035;-61
2022/10/24 12:56:52;;;;;;;10.75;7.97;;;;;;;;;;1772628;80;21004;-61
2022/10/24 12:59:19;;;;;;;11.50;7.58;;;;;;;;;;1780260;80;21067;-62
2022/10/24 13:01:45;;;;;;;14.18;8.50;;;;;;;;;;1784235;79;21551;-62
2022/10/24 13:04:19;;;;;;;12.73;8.00;;;;;;;;;;1789829;80;21035;-62
2022/10/24 13:07:06;;;;;;;10.05;6.60;;;;;;;;;;1784359;80;21021;-62
2022/10/24 13:22:04;;;;;;;12.43;8.45;;;;;;;;;;1793693;78;23553;-61
2022/10/24 13:24:38;;;;;;;12.20;8.10;;;;;;;;;;1755129;81;21563;-62
2022/10/24 13:27:07;;;;;;;12.58;8.58;;;;;;;;;;1759398;80;21011;-62
2022/10/24 13:29:35;;;;;;;12.15;7.80;;;;;;;;;;1756379;80;20993;-62
2022/10/24 13:32:07;;;;;;;11.75;8.00;;;;;;;;;;1759859;80;20992;-62
2022/10/24 13:34:51;;;;;;;11.25;8.08;;;;;;;;;;1743759;80;21062;-62
2022/10/24 13:37:19;;;;;;;12.35;9.08;;;;;;;;;;1759050;80;21048;-62
2022/10/24 13:39:48;;;;;;;11.93;8.25;;;;;;;;;;1755376;80;21028;-62
2022/10/24 13:42:24;;;;;;;14.65;9.10;;;;;;;;;;1765849;80;21012;-63
2022/10/24 13:44:51;;;;;;;12.98;9.60;;;;;;;;;;1750568;81;21076;-63
2022/10/24 13:47:29;;;;;;;13.90;10.10;;;;;;;;;;1759348;81;21029;-63
2022/10/24 13:50:06;;;;;;;14.55;9.38;;;;;;;;;;1754895;80;21036;-63
2022/10/24 13:52:46;;;;;;;13.53;8.78;;;;;;;;;;1762172;80;21004;-62
2022/10/24 13:55:15;;;;;;;13.30;9.00;;;;;;;;;;1766197;80;21033;-62
2022/10/24 13:57:54;;;;;;;13.22;8.85;;;;;;;;;;1770783;80;21004;-62
2022/10/24 14:00:22;;;;;;;15.85;9.03;;;;;;;;;;1780562;80;21029;-62
2022/10/24 14:02:49;;;;;;;14.20;9.90;;;;;;;;;;1760318;80;21048;-62
2022/10/24 14:05:20;;;;;;;15.40;9.75;;;;;;;;;;1757715;80;21507;-61
2022/10/24 14:07:46;;;;;;;11.88;8.58;;;;;;;;;;1751191;80;21063;-62
2022/10/24 14:10:15;;;;;;;13.85;9.80;;;;;;;;;;1766990;80;21559;-62
2022/10/24 14:12:43;;;;;;;13.55;9.50;;;;;;;;;;1771923;79;21100;-63
2022/10/24 14:15:16;;;;;;;12.90;7.87;;;;;;;;;;1757168;81;21068;-62
2022/10/24 14:17:44;;;;;;;15.93;9.70;;;;;;;;;;1771358;80;21008;-62
2022/10/24 14:20:21;;;;;;;16.70;10.15;;;;;;;;;;1758544;80;21064;-62
2022/10/24 14:22:48;;;;;;;17.48;11.03;;;;;;;;;;1744407;80;21053;-61
2022/10/24 14:25:21;;;;;;;14.15;9.90;;;;;;;;;;1744247;80;20973;-62
2022/10/24 14:27:48;;;;;;;15.65;11.03;;;;;;;;;;1755478;80;21029;-62
2022/10/24 14:30:18;;;;;;;14.20;10.28;;;;;;;;;;1744486;80;21013;-62
2022/10/24 14:32:44;;;;;;;16.10;10.82;;;;;;;;;;1743379;80;21045;-62
2022/10/24 14:35:11;;;;;;;19.02;10.85;;;;;;;;;;1746932;80;21032;-61
2022/10/24 14:37:37;;;;;;;16.35;10.40;;;;;;;;;;1751731;80;21049;-61
2022/10/24 14:40:04;;;;;;;16.02;10.85;;;;;;;;;;1734320;81;21112;-62
2022/10/24 14:42:30;;;;;;;16.20;11.33;;;;;;;;;;1749084;80;21045;-62
2022/10/24 14:59:43;;;;;;;18.20;12.50;;;;;;;;;;1776442;78;23209;-61
2022/10/24 15:02:14;;;;;;;17.00;11.97;;;;;;;;;;1751548;80;21032;-61
2022/10/24 15:04:44;;;;;;;22.90;13.60;;;;;;;;;;1749118;80;21098;-61
2022/10/24 15:07:11;;;;;;;17.82;11.85;;;;;;;;;;1750688;80;21040;-61
2022/10/24 15:09:40;;;;;;;18.15;12.00;;;;;;;;;;1750147;80;21072;-61
2022/10/24 15:12:11;;;;;;;22.95;12.53;;;;;;;;;;1753698;80;21563;-61
2022/10/24 15:27:46;;;;;;;26.77;16.40;;;;;;;;;;1807599;78;23652;-62
2022/10/24 15:30:13;;;;;;;26.00;16.75;;;;;;;;;;1788398;80;21047;-61
2022/10/24 15:32:39;;;;;;;23.92;15.45;;;;;;;;;;1753670;81;21060;-62
2022/10/24 15:35:06;;;;;;;22.07;15.43;;;;;;;;;;1745383;81;21124;-62
2022/10/24 15:37:32;;;;;;;24.85;15.65;;;;;;;;;;1711452;82;21096;-61
2022/10/24 15:40:02;;;;;;;24.72;15.68;;;;;;;;;;1758986;80;21551;-62
2022/10/24 15:42:29;;;;;;;24.98;15.70;;;;;;;;;;1762142;81;21017;-62
2022/10/24 15:44:55;;;;;;;25.12;15.13;;;;;;;;;;1714103;83;21064;-63
2022/10/24 16:09:44;;;;;;;28.40;17.95;;;;;;;;;;1778386;77;955467;-63
2022/10/24 16:12:11;;;;;;;34.43;22.42;;;;;;;;;;1715781;82;21106;-63
2022/10/24 16:14:37;;;;;;;31.73;21.00;;;;;;;;;;1728081;82;21002;-64
2022/10/24 16:17:03;;;;;;;42.88;29.05;;;;;;;;;;1724453;81;21502;-63
2022/10/24 16:19:30;;;;;;;40.10;26.82;;;;;;;;;;1748814;81;21042;-63
2022/10/24 16:21:57;;;;;;;38.17;25.68;;;;;;;;;;1739668;81;21015;-61
2022/10/24 16:24:24;;;;;;;35.23;23.30;;;;;;;;;;1756282;81;21016;-61
2022/10/24 16:26:52;;;;;;;36.17;24.15;;;;;;;;;;1736121;82;21748;-61
2022/10/24 16:29:18;;;;;;;31.02;21.90;;;;;;;;;;1760849;79;21091;-61
2022/10/24 16:31:47;;;;;;;33.00;21.35;;;;;;;;;;1762587;81;21032;-62